Time;durP1;ratioP1;P1;durP2;ratioP2;P2;SDS_P1;SDS_P2;PMS_P1;PMS_P2;Temp;Humidity;BMP_temperature;BMP_pressure;BME280_temperature;BME280_humidity;BME280_pressure;Samples;Min_cycle;Max_cycle;Signal;HPM_P1;HPM_P2
2023/12/08 00:01:29;;;;;;;25.53;12.40;;;2.00;99.90;;;;;;4954992;29;20094;-91
2023/12/08 00:03:55;;;;;;;27.40;11.67;;;0.80;99.90;;;;;;4954426;29;20439;-91
2023/12/08 00:06:20;;;;;;;26.73;12.27;;;2.20;99.90;;;;;;4954836;29;20047;-91
2023/12/08 00:08:46;;;;;;;24.60;12.07;;;0.50;99.90;;;;;;4954746;29;20138;-91
2023/12/08 00:11:12;;;;;;;25.27;12.13;;;0.70;99.90;;;;;;4953894;29;20058;-91
2023/12/08 00:13:46;;;;;;;22.53;11.30;;;1.00;99.90;;;;;;4954590;28;20054;-91
2023/12/08 00:16:12;;;;;;;24.87;11.80;;;0.40;99.90;;;;;;4954455;28;20051;-91
2023/12/08 00:18:37;;;;;;;27.97;12.43;;;1.80;99.90;;;;;;4954378;29;20105;-91
2023/12/08 00:21:03;;;;;;;25.87;12.00;;;1.60;99.90;;;;;;4954342;29;20043;-91
2023/12/08 00:23:29;;;;;;;26.37;12.20;;;0.60;99.90;;;;;;4954873;29;20050;-91
2023/12/08 00:26:04;;;;;;;26.77;12.17;;;0.90;99.90;;;;;;4953354;29;20097;-92
2023/12/08 00:28:30;;;;;;;24.63;11.00;;;2.20;99.90;;;;;;4959454;28;20141;-91
2023/12/08 00:30:58;;;;;;;26.60;12.40;;;0.40;99.90;;;;;;4972652;28;20128;-91
2023/12/08 00:33:35;;;;;;;24.87;12.40;;;1.30;99.90;;;;;;4971373;28;20415;-90
2023/12/08 00:36:01;;;;;;;26.47;12.43;;;0.40;99.90;;;;;;4972105;28;20047;-91
2023/12/08 00:38:26;;;;;;;26.77;12.90;;;2.20;99.90;;;;;;4971064;28;20561;-91
2023/12/08 00:40:52;;;;;;;27.03;12.87;;;0.40;99.90;;;;;;4971214;28;20057;-91
2023/12/08 00:43:18;;;;;;;25.37;12.07;;;1.00;99.90;;;;;;4973698;28;20376;-90
2023/12/08 00:45:44;;;;;;;27.93;12.67;;;0.30;99.90;;;;;;4973036;28;20594;-91
2023/12/08 00:48:10;;;;;;;29.30;12.80;;;0.60;99.90;;;;;;4973101;28;20050;-91
2023/12/08 00:50:35;;;;;;;29.50;12.77;;;0.60;99.90;;;;;;4973181;28;20049;-91
2023/12/08 00:53:01;;;;;;;26.50;12.17;;;1.00;99.90;;;;;;4972989;28;20141;-91
2023/12/08 00:55:27;;;;;;;24.17;12.10;;;0.50;99.90;;;;;;4973852;28;20507;-91
2023/12/08 00:57:52;;;;;;;26.70;13.27;;;0.50;99.90;;;;;;4971257;28;20465;-91
2023/12/08 01:00:18;;;;;;;27.97;13.17;;;0.50;99.90;;;;;;4955616;29;20053;-90
2023/12/08 01:02:44;;;;;;;29.93;13.20;;;0.50;99.90;;;;;;4954502;29;20456;-91
2023/12/08 01:05:09;;;;;;;25.23;12.70;;;0.50;99.90;;;;;;4954775;29;20070;-90
2023/12/08 01:07:35;;;;;;;25.87;12.37;;;0.50;99.90;;;;;;4957115;29;20039;-92
2023/12/08 01:10:01;;;;;;;25.63;12.57;;;0.50;99.90;;;;;;4953317;29;20047;-90
2023/12/08 01:12:26;;;;;;;25.70;11.73;;;0.50;99.90;;;;;;4953548;29;20102;-91
2023/12/08 01:14:52;;;;;;;26.73;11.93;;;0.50;99.90;;;;;;4956609;28;20062;-91
2023/12/08 01:17:17;;;;;;;26.00;12.10;;;0.50;99.90;;;;;;4953855;29;20114;-91
2023/12/08 01:19:43;;;;;;;25.47;11.43;;;0.50;99.90;;;;;;4953501;29;20042;-91
2023/12/08 01:22:09;;;;;;;26.00;11.90;;;0.50;99.90;;;;;;4971984;28;20046;-91
2023/12/08 01:24:34;;;;;;;27.83;12.27;;;0.50;99.90;;;;;;4974411;28;20054;-90
2023/12/08 01:27:00;;;;;;;26.33;12.03;;;0.50;99.90;;;;;;4978178;28;20411;-90
2023/12/08 01:29:26;;;;;;;25.43;12.37;;;0.50;99.90;;;;;;4983134;28;20089;-90
2023/12/08 01:31:51;;;;;;;24.93;12.13;;;0.50;99.90;;;;;;4981537;28;20043;-90
2023/12/08 01:34:29;;;;;;;26.57;12.30;;;0.50;99.90;;;;;;4976758;28;20510;-90
2023/12/08 01:37:08;;;;;;;23.17;11.37;;;0.50;99.90;;;;;;4976896;28;20462;-90
2023/12/08 01:39:40;;;;;;;24.30;11.73;;;0.20;99.90;;;;;;4976578;28;20098;-90
2023/12/08 01:42:05;;;;;;;27.70;12.90;;;0.30;99.90;;;;;;4998264;28;20077;-90
2023/12/08 01:44:31;;;;;;;25.63;12.00;;;0.30;99.90;;;;;;4993844;28;20042;-90
2023/12/08 01:46:57;;;;;;;26.23;12.27;;;0.40;99.90;;;;;;4979894;28;20050;-90
2023/12/08 01:49:23;;;;;;;24.87;12.33;;;0.30;99.90;;;;;;4977669;28;20057;-90
2023/12/08 01:51:49;;;;;;;25.60;12.13;;;1.20;99.90;;;;;;4976175;28;20043;-90
2023/12/08 01:54:16;;;;;;;25.00;12.30;;;1.40;99.90;;;;;;4976096;28;20077;-91
2023/12/08 01:56:42;;;;;;;28.23;13.20;;;0.30;99.90;;;;;;4976111;28;20054;-90
2023/12/08 01:59:08;;;;;;;27.50;12.50;;;0.30;99.90;;;;;;4976301;28;20043;-90
2023/12/08 02:01:35;;;;;;;27.20;12.07;;;0.70;99.90;;;;;;4976779;28;20043;-90
2023/12/08 02:04:02;;;;;;;26.70;12.30;;;0.20;99.90;;;;;;4974997;28;20043;-90
2023/12/08 02:06:28;;;;;;;25.10;11.77;;;0.60;99.90;;;;;;4976657;28;20065;-91
2023/12/08 02:08:54;;;;;;;26.07;11.77;;;-0.20;99.90;;;;;;4976368;28;20514;-90
2023/12/08 02:11:20;;;;;;;25.73;12.77;;;1.10;99.90;;;;;;4975315;28;20125;-90
2023/12/08 02:13:55;;;;;;;26.97;11.90;;;0.30;99.90;;;;;;4976856;28;20049;-91
2023/12/08 02:16:27;;;;;;;24.90;11.90;;;1.70;99.90;;;;;;4976162;28;20053;-91
2023/12/08 02:19:13;;;;;;;26.93;12.40;;;0.20;99.90;;;;;;4976056;28;20038;-92
2023/12/08 02:21:39;;;;;;;25.57;11.80;;;-0.10;99.90;;;;;;4975720;28;20074;-90
2023/12/08 02:24:05;;;;;;;24.17;12.27;;;1.90;99.90;;;;;;4975858;28;20490;-90
2023/12/08 02:26:31;;;;;;;27.20;12.13;;;0.50;99.90;;;;;;4976489;28;20085;-90
2023/12/08 02:28:57;;;;;;;26.53;12.17;;;0.80;99.90;;;;;;4977037;28;20102;-90
2023/12/08 02:32:09;;;;;;;25.60;11.60;;;0.50;99.90;;;;;;4980944;28;20038;-90
2023/12/08 02:34:43;;;;;;;27.27;12.60;;;1.20;99.90;;;;;;4980073;28;20050;-90
2023/12/08 02:37:25;;;;;;;26.33;11.67;;;1.20;99.90;;;;;;4985072;28;20054;-90
2023/12/08 02:39:53;;;;;;;24.60;11.73;;;-0.20;99.90;;;;;;4985053;28;20045;-90
2023/12/08 02:42:19;;;;;;;26.17;11.87;;;0.30;99.90;;;;;;4984701;28;20138;-90
2023/12/08 02:44:44;;;;;;;24.67;11.97;;;0.30;99.90;;;;;;4985758;28;20061;-90
2023/12/08 02:47:10;;;;;;;25.10;10.80;;;0.50;99.90;;;;;;4983165;28;20233;-90
2023/12/08 02:49:36;;;;;;;25.07;11.60;;;0.50;99.90;;;;;;4984894;28;20047;-89
2023/12/08 02:52:02;;;;;;;24.60;10.93;;;0.30;99.90;;;;;;4971750;28;20061;-90
2023/12/08 02:54:27;;;;;;;26.73;12.00;;;0.60;99.90;;;;;;4971968;28;20047;-91
2023/12/08 02:56:53;;;;;;;23.83;11.67;;;0.30;99.90;;;;;;4972182;28;20047;-90
2023/12/08 02:59:25;;;;;;;24.43;11.50;;;1.70;99.90;;;;;;4955243;29;20062;-90
2023/12/08 03:01:50;;;;;;;24.07;11.07;;;1.40;99.90;;;;;;4955697;29;20064;-90
2023/12/08 03:04:16;;;;;;;23.80;10.33;;;1.10;99.90;;;;;;4970982;28;20043;-90
2023/12/08 03:06:48;;;;;;;24.80;11.23;;;0.20;99.90;;;;;;4970820;28;20043;-90
2023/12/08 03:09:14;;;;;;;26.07;11.50;;;0.20;99.90;;;;;;4955529;29;20051;-90
2023/12/08 03:11:39;;;;;;;24.30;11.47;;;0.30;99.90;;;;;;4971922;28;20182;-90
2023/12/08 03:14:05;;;;;;;25.90;11.10;;;0.30;99.90;;;;;;4954888;29;20046;-90
2023/12/08 03:16:31;;;;;;;22.17;10.63;;;0.30;99.90;;;;;;4955872;29;20436;-90
2023/12/08 03:18:57;;;;;;;22.83;11.00;;;1.40;99.90;;;;;;4967519;28;20138;-91
2023/12/08 03:21:23;;;;;;;25.10;11.67;;;0.30;99.90;;;;;;4971040;28;20047;-90
2023/12/08 03:23:49;;;;;;;24.53;10.77;;;2.10;99.90;;;;;;4954733;29;20098;-91
2023/12/08 03:26:15;;;;;;;23.97;10.90;;;0.40;99.90;;;;;;4955228;29;20047;-91
2023/12/08 03:28:41;;;;;;;26.23;11.43;;;0.40;99.90;;;;;;4954587;29;20055;-90
2023/12/08 03:31:24;;;;;;;22.70;10.77;;;0.40;99.90;;;;;;4954943;29;20043;-90
2023/12/08 03:33:50;;;;;;;23.70;11.33;;;0.40;99.90;;;;;;4955002;29;20079;-90
2023/12/08 03:36:15;;;;;;;24.20;11.27;;;2.00;99.90;;;;;;4970247;28;20325;-90
2023/12/08 03:38:41;;;;;;;22.57;10.77;;;0.50;99.90;;;;;;4955302;29;20048;-89
2023/12/08 03:41:09;;;;;;;21.60;9.83;;;0.40;99.90;;;;;;4954064;29;20238;-91
2023/12/08 03:43:35;;;;;;;22.33;10.27;;;1.20;99.90;;;;;;4955490;28;20035;-91
2023/12/08 03:46:00;;;;;;;24.10;11.00;;;0.40;99.90;;;;;;4958530;28;20106;-91
2023/12/08 03:48:27;;;;;;;23.50;11.90;;;0.70;99.90;;;;;;4972527;28;20055;-91
2023/12/08 03:50:52;;;;;;;24.27;11.50;;;0.20;99.90;;;;;;4974076;28;20054;-91
2023/12/08 03:53:18;;;;;;;24.97;10.93;;;0.30;99.90;;;;;;4973669;28;20062;-90
2023/12/08 03:55:44;;;;;;;22.50;10.97;;;1.70;99.90;;;;;;4973632;28;20046;-91
2023/12/08 03:58:09;;;;;;;26.47;11.87;;;0.30;99.90;;;;;;4974168;28;20190;-91
2023/12/08 04:00:35;;;;;;;26.10;11.40;;;0.20;99.90;;;;;;4974136;28;20042;-91
2023/12/08 04:03:16;;;;;;;25.23;11.97;;;0.10;99.90;;;;;;4973150;28;20042;-91
2023/12/08 04:05:42;;;;;;;27.00;11.73;;;0.80;99.90;;;;;;4974344;28;20125;-91
2023/12/08 04:08:08;;;;;;;24.77;10.97;;;0.60;99.90;;;;;;4973864;28;20082;-91
2023/12/08 04:10:49;;;;;;;26.07;12.03;;;0.60;99.90;;;;;;4972193;28;20058;-91
2023/12/08 04:13:14;;;;;;;26.67;11.80;;;0.30;99.90;;;;;;4974202;28;20065;-91
2023/12/08 04:15:40;;;;;;;25.00;11.67;;;1.10;99.90;;;;;;4974156;28;20047;-91
2023/12/08 04:18:06;;;;;;;24.47;10.77;;;0.20;99.90;;;;;;4973258;28;20050;-91
2023/12/08 04:20:32;;;;;;;24.53;11.07;;;1.00;99.90;;;;;;4974536;28;20050;-91
2023/12/08 04:23:10;;;;;;;27.30;12.37;;;0.40;99.90;;;;;;4973960;28;20137;-91
2023/12/08 04:25:49;;;;;;;23.90;11.57;;;1.10;99.90;;;;;;4978855;28;20043;-91
2023/12/08 04:28:14;;;;;;;28.17;12.70;;;1.40;99.90;;;;;;4973449;28;20411;-91
2023/12/08 04:30:40;;;;;;;30.00;13.00;;;0.00;99.90;;;;;;4974375;28;20050;-91
2023/12/08 04:33:12;;;;;;;26.23;11.60;;;1.20;99.90;;;;;;4980368;28;20043;-91
2023/12/08 04:35:46;;;;;;;27.37;11.80;;;0.00;99.90;;;;;;4974054;28;20043;-91
2023/12/08 04:38:21;;;;;;;27.97;13.03;;;1.10;99.90;;;;;;4972709;28;20134;-91
2023/12/08 04:41:02;;;;;;;26.27;12.13;;;1.10;99.90;;;;;;4978393;28;20046;-91
2023/12/08 04:43:28;;;;;;;27.83;12.33;;;0.30;99.90;;;;;;4998305;28;20057;-91
2023/12/08 04:46:00;;;;;;;27.70;12.87;;;0.90;99.90;;;;;;4994645;28;20051;-91
2023/12/08 04:48:25;;;;;;;27.67;12.40;;;0.60;99.90;;;;;;4987960;28;20062;-91
2023/12/08 04:50:52;;;;;;;25.97;11.93;;;1.30;99.90;;;;;;4974245;28;20403;-92
2023/12/08 04:53:17;;;;;;;26.90;11.97;;;0.50;99.90;;;;;;4973509;28;20062;-91
2023/12/08 04:55:55;;;;;;;27.97;12.70;;;0.90;99.90;;;;;;4972298;28;20395;-91
2023/12/08 04:58:39;;;;;;;26.07;11.90;;;-0.10;99.90;;;;;;4972695;28;20077;-92
2023/12/08 05:01:04;;;;;;;27.00;12.48;;;1.30;99.90;;;;;;4973184;28;20117;-92
2023/12/08 05:03:31;;;;;;;29.07;12.40;;;0.10;99.90;;;;;;4969626;28;20105;-92
2023/12/08 05:06:00;;;;;;;28.67;11.97;;;0.00;99.90;;;;;;4968406;28;20047;-91
2023/12/08 05:08:41;;;;;;;26.20;12.40;;;0.30;99.90;;;;;;4968726;28;20043;-92
2023/12/08 05:11:25;;;;;;;24.53;11.87;;;0.00;99.90;;;;;;4969712;28;20450;-93
2023/12/08 05:13:50;;;;;;;28.73;12.40;;;0.00;99.90;;;;;;4969195;28;20047;-93
2023/12/08 05:16:22;;;;;;;28.43;12.17;;;0.00;99.90;;;;;;4969953;28;20110;-93
2023/12/08 05:18:50;;;;;;;29.07;12.77;;;0.90;99.90;;;;;;4953900;29;20047;-93
2023/12/08 05:21:16;;;;;;;27.27;13.13;;;1.00;99.90;;;;;;4969813;28;20566;-91
2023/12/08 05:23:42;;;;;;;30.37;13.30;;;0.80;99.90;;;;;;4969843;28;20046;-92
2023/12/08 05:26:08;;;;;;;30.20;13.37;;;1.20;99.90;;;;;;4953541;29;20040;-93
2023/12/08 05:28:34;;;;;;;28.03;12.97;;;0.00;99.90;;;;;;4952824;29;20130;-92
2023/12/08 05:31:00;;;;;;;30.73;13.03;;;-0.40;99.90;;;;;;4953759;29;20050;-93
2023/12/08 05:33:26;;;;;;;30.33;14.00;;;0.70;99.90;;;;;;4954100;29;20052;-91
2023/12/08 05:35:51;;;;;;;31.03;13.77;;;0.00;99.90;;;;;;4969514;28;20043;-92
2023/12/08 05:38:17;;;;;;;27.87;13.03;;;0.20;99.90;;;;;;4954169;29;20043;-93
2023/12/08 05:40:43;;;;;;;28.97;12.80;;;1.70;99.90;;;;;;4968410;28;20044;-92
2023/12/08 05:43:09;;;;;;;28.30;13.77;;;0.00;99.90;;;;;;4953548;29;20043;-92
2023/12/08 05:45:35;;;;;;;31.53;13.73;;;0.00;99.90;;;;;;4969982;28;20181;-93
2023/12/08 05:48:01;;;;;;;29.13;13.50;;;1.80;99.90;;;;;;4968952;28;20392;-93
2023/12/08 05:50:27;;;;;;;31.07;13.63;;;0.00;99.90;;;;;;4954339;29;20419;-92
2023/12/08 05:52:53;;;;;;;31.53;14.20;;;0.60;99.90;;;;;;4953745;29;20110;-93
2023/12/08 05:55:18;;;;;;;29.80;13.50;;;0.70;99.90;;;;;;4969962;28;20040;-92
2023/12/08 05:57:44;;;;;;;32.43;14.40;;;0.90;99.90;;;;;;4970621;28;20106;-93
2023/12/08 06:00:11;;;;;;;29.93;13.67;;;1.10;99.90;;;;;;4957871;29;20063;-92
2023/12/08 06:02:36;;;;;;;30.13;13.73;;;0.20;99.90;;;;;;4970747;28;20055;-93
2023/12/08 06:05:02;;;;;;;29.73;13.23;;;1.20;99.90;;;;;;4970128;28;20062;-92
2023/12/08 06:07:28;;;;;;;28.77;13.27;;;0.20;99.90;;;;;;4964842;29;20054;-92
2023/12/08 06:09:53;;;;;;;26.90;12.83;;;0.20;99.90;;;;;;4974753;28;20043;-93
2023/12/08 06:12:19;;;;;;;32.57;13.63;;;0.10;99.90;;;;;;4974044;28;20051;-93
2023/12/08 06:14:45;;;;;;;30.67;13.33;;;1.30;99.90;;;;;;4964704;28;20055;-93
2023/12/08 06:17:10;;;;;;;27.47;12.60;;;0.50;99.90;;;;;;4965022;29;20420;-94
2023/12/08 06:19:36;;;;;;;29.77;12.87;;;-0.30;99.90;;;;;;4957465;29;20139;-94
2023/12/08 06:22:02;;;;;;;32.13;13.73;;;-0.20;99.90;;;;;;4957042;29;20073;-93
2023/12/08 06:24:34;;;;;;;29.93;13.77;;;0.30;99.90;;;;;;4957483;29;20106;-94
2023/12/08 06:26:59;;;;;;;32.23;13.97;;;2.10;99.90;;;;;;4957480;29;20070;-93
2023/12/08 06:29:25;;;;;;;31.40;13.43;;;0.10;99.90;;;;;;4973251;28;20484;-94
2023/12/08 06:31:53;;;;;;;31.30;13.63;;;0.60;99.90;;;;;;4973044;28;20043;-95
2023/12/08 06:34:19;;;;;;;31.87;13.40;;;0.30;99.90;;;;;;4957771;29;20051;-95
2023/12/08 06:36:45;;;;;;;29.23;13.17;;;0.80;99.90;;;;;;4957445;29;20043;-94
2023/12/08 06:39:16;;;;;;;30.67;12.97;;;0.70;99.90;;;;;;4957053;29;20518;-94
2023/12/08 06:41:42;;;;;;;31.10;12.83;;;0.30;99.90;;;;;;4957119;29;20094;-94
2023/12/08 06:44:08;;;;;;;28.40;12.93;;;0.20;99.90;;;;;;4957355;29;20050;-94
2023/12/08 06:46:33;;;;;;;31.90;13.67;;;1.30;99.90;;;;;;4957290;28;20059;-93
2023/12/08 06:49:05;;;;;;;32.03;13.67;;;0.20;99.90;;;;;;4976598;28;20054;-92
2023/12/08 06:51:34;;;;;;;31.43;13.80;;;1.10;99.90;;;;;;4977119;28;20106;-93
2023/12/08 06:54:10;;;;;;;29.83;13.47;;;2.00;99.90;;;;;;4976898;28;20043;-86
2023/12/08 06:56:39;;;;;;;28.13;13.20;;;0.20;99.90;;;;;;4975628;28;20053;-82
2023/12/08 06:59:05;;;;;;;34.83;14.50;;;0.70;99.90;;;;;;4975580;28;20047;-84
2023/12/08 07:01:31;;;;;;;35.27;14.37;;;0.00;99.90;;;;;;4974408;28;20069;-83
2023/12/08 07:04:14;;;;;;;35.73;15.67;;;1.30;99.90;;;;;;4975561;28;20078;-84
2023/12/08 07:06:46;;;;;;;34.13;15.60;;;0.80;99.90;;;;;;4972748;28;20047;-84
2023/12/08 07:09:15;;;;;;;40.37;15.93;;;1.00;99.90;;;;;;4971150;28;20142;-84
2023/12/08 07:11:41;;;;;;;35.80;16.07;;;0.00;99.90;;;;;;4974580;28;20190;-84
2023/12/08 07:14:22;;;;;;;38.10;16.23;;;0.20;99.90;;;;;;4973200;28;20224;-84
2023/12/08 07:16:47;;;;;;;36.87;16.13;;;1.00;99.90;;;;;;4973755;28;20042;-83
2023/12/08 07:19:13;;;;;;;36.23;15.10;;;0.00;99.90;;;;;;4973562;28;20101;-84
2023/12/08 07:21:43;;;;;;;38.43;17.00;;;0.20;99.90;;;;;;4973402;28;20507;-84
2023/12/08 07:24:10;;;;;;;35.67;15.73;;;0.00;99.90;;;;;;4973443;28;20372;-84
2023/12/08 07:26:35;;;;;;;36.70;15.73;;;0.00;99.90;;;;;;4973402;28;20443;-84
2023/12/08 07:29:06;;;;;;;36.67;16.10;;;0.80;99.90;;;;;;4974150;28;20158;-84
2023/12/08 07:31:32;;;;;;;37.67;15.90;;;1.20;99.90;;;;;;4973558;28;20154;-84
2023/12/08 07:34:24;;;;;;;40.40;16.17;;;1.70;99.90;;;;;;4972994;28;20170;-84
2023/12/08 07:36:50;;;;;;;38.37;16.20;;;1.90;99.90;;;;;;4969554;28;20065;-84
2023/12/08 07:39:18;;;;;;;38.23;16.67;;;1.30;99.90;;;;;;4973383;28;20047;-83
2023/12/08 07:41:47;;;;;;;35.33;16.73;;;-0.20;99.90;;;;;;4982517;28;20390;-83
2023/12/08 07:44:13;;;;;;;37.63;16.83;;;0.20;99.90;;;;;;4989007;28;20057;-83
2023/12/08 07:46:39;;;;;;;34.90;15.93;;;0.00;99.90;;;;;;4992560;28;20082;-83
2023/12/08 07:49:04;;;;;;;37.23;16.17;;;1.80;99.90;;;;;;4973368;28;20498;-85
2023/12/08 07:51:32;;;;;;;33.83;15.70;;;0.40;99.90;;;;;;4975395;28;20101;-84
2023/12/08 07:54:00;;;;;;;33.40;16.17;;;0.60;99.90;;;;;;4974941;28;20050;-84
2023/12/08 07:56:25;;;;;;;34.17;15.10;;;0.00;99.90;;;;;;4973517;28;20047;-83
2023/12/08 07:58:51;;;;;;;32.53;15.63;;;0.00;99.90;;;;;;4973057;28;20138;-83
2023/12/08 08:01:31;;;;;;;35.23;15.40;;;1.40;99.90;;;;;;4969663;28;20077;-83
2023/12/08 08:03:57;;;;;;;32.30;15.40;;;0.40;99.90;;;;;;4973067;28;20506;-84
2023/12/08 08:06:24;;;;;;;32.23;16.23;;;0.90;99.90;;;;;;4973314;28;20055;-83
2023/12/08 08:08:50;;;;;;;36.73;15.37;;;1.70;99.90;;;;;;4952564;29;20116;-84
2023/12/08 08:11:15;;;;;;;36.57;14.77;;;1.10;99.90;;;;;;4952633;29;20055;-84
2023/12/08 08:13:41;;;;;;;30.90;14.37;;;1.70;99.90;;;;;;4952640;29;20047;-88
2023/12/08 08:16:10;;;;;;;33.90;15.23;;;0.10;99.90;;;;;;4952298;29;20491;-88
2023/12/08 08:18:35;;;;;;;32.33;15.33;;;0.10;99.90;;;;;;4952413;29;20043;-85
2023/12/08 08:21:10;;;;;;;35.90;15.43;;;0.20;99.90;;;;;;4953541;29;20047;-84
2023/12/08 08:23:36;;;;;;;32.53;14.87;;;0.00;99.90;;;;;;4952771;29;20051;-84
2023/12/08 08:26:04;;;;;;;35.57;15.00;;;1.90;99.90;;;;;;4953465;29;20047;-83
2023/12/08 08:28:30;;;;;;;32.93;17.13;;;0.30;99.90;;;;;;4954042;29;20047;-84
2023/12/08 08:30:56;;;;;;;33.43;15.90;;;1.20;99.90;;;;;;4952924;29;20506;-85
2023/12/08 08:33:40;;;;;;;35.30;15.07;;;0.80;99.90;;;;;;4953573;28;20047;-87
2023/12/08 08:36:07;;;;;;;32.47;15.60;;;1.10;99.90;;;;;;4962433;28;20121;-85
2023/12/08 08:38:33;;;;;;;33.07;15.47;;;0.30;99.90;;;;;;4968683;28;20077;-84
2023/12/08 08:41:05;;;;;;;34.43;15.87;;;0.40;99.90;;;;;;4964080;28;20149;-85
2023/12/08 08:43:45;;;;;;;32.70;15.27;;;0.30;99.90;;;;;;4963618;28;20045;-85
2023/12/08 08:46:11;;;;;;;33.20;15.37;;;0.20;99.90;;;;;;4967423;28;20827;-85
2023/12/08 08:48:37;;;;;;;33.03;15.80;;;0.10;99.90;;;;;;4973577;28;20137;-86
2023/12/08 08:51:05;;;;;;;32.57;15.30;;;1.60;99.90;;;;;;4959415;28;20061;-86
2023/12/08 08:53:31;;;;;;;34.17;15.10;;;0.50;99.90;;;;;;4957099;28;20069;-86
2023/12/08 08:56:03;;;;;;;34.07;15.27;;;0.40;99.90;;;;;;4956296;28;20043;-86
2023/12/08 08:58:29;;;;;;;34.37;15.30;;;0.50;99.90;;;;;;4990274;28;20065;-86
2023/12/08 09:01:26;;;;;;;33.90;15.23;;;0.40;99.90;;;;;;4972194;28;20043;-89
2023/12/08 09:03:51;;;;;;;31.27;15.47;;;-0.40;99.90;;;;;;4956644;28;20097;-85
2023/12/08 09:06:20;;;;;;;34.27;15.00;;;0.30;99.90;;;;;;4984474;28;20074;-84
2023/12/08 09:08:48;;;;;;;35.47;15.37;;;0.40;99.90;;;;;;4975272;28;20410;-84
2023/12/08 09:11:14;;;;;;;33.67;16.17;;;1.30;99.90;;;;;;4992578;28;20053;-85
2023/12/08 09:13:39;;;;;;;35.47;15.80;;;0.40;99.90;;;;;;4974275;28;20034;-84
2023/12/08 09:16:08;;;;;;;34.47;15.40;;;0.30;99.90;;;;;;4975133;28;20109;-85
2023/12/08 09:18:34;;;;;;;34.33;15.73;;;0.20;99.90;;;;;;4975540;28;20055;-82
2023/12/08 09:21:26;;;;;;;38.37;16.67;;;0.20;99.90;;;;;;4975761;28;20088;-83
2023/12/08 09:24:04;;;;;;;33.23;14.93;;;0.60;99.90;;;;;;4954206;28;20138;-83
2023/12/08 09:26:29;;;;;;;33.93;14.97;;;0.40;99.90;;;;;;4955890;28;20406;-82
2023/12/08 09:28:55;;;;;;;33.10;15.03;;;0.30;99.90;;;;;;4973196;28;20101;-86
2023/12/08 09:31:23;;;;;;;34.40;15.03;;;0.50;99.90;;;;;;4976638;28;20047;-83
2023/12/08 09:33:49;;;;;;;37.93;15.93;;;0.20;99.90;;;;;;4974763;28;20071;-85
2023/12/08 09:36:15;;;;;;;33.90;16.17;;;0.30;99.90;;;;;;4975230;28;20075;-85
2023/12/08 09:38:47;;;;;;;31.73;15.67;;;0.50;99.90;;;;;;4976868;28;20043;-85
2023/12/08 09:41:34;;;;;;;33.50;15.33;;;0.40;99.90;;;;;;4977042;28;20069;-89
2023/12/08 09:50:33;;;;;;;32.53;15.17;;;1.70;99.90;;;;;;4964556;29;20103;-88
2023/12/08 09:53:00;;;;;;;33.90;15.43;;;0.70;99.90;;;;;;4945989;29;20083;-89
2023/12/08 09:56:26;;;;;;;35.43;15.20;;;0.80;99.90;;;;;;4946393;29;20039;-88
2023/12/08 09:59:16;;;;;;;33.37;15.80;;;-0.10;99.90;;;;;;4865997;29;20528;-88
2023/12/08 10:01:45;;;;;;;34.13;15.47;;;0.40;99.90;;;;;;4891695;29;20059;-88
2023/12/08 10:04:34;;;;;;;36.23;16.40;;;0.90;99.90;;;;;;4984588;23;20050;-90
2023/12/08 10:10:35;;;;;;;36.10;15.17;;;1.00;99.90;;;;;;4960106;28;20051;-83
2023/12/08 10:13:05;;;;;;;35.60;16.53;;;1.20;99.90;;;;;;4959345;28;20495;-90
2023/12/08 10:15:34;;;;;;;34.72;15.90;;;0.70;99.90;;;;;;4959858;28;20038;-84
2023/12/08 10:18:00;;;;;;;35.60;16.40;;;0.70;99.90;;;;;;4958962;28;20133;-84
2023/12/08 10:20:25;;;;;;;34.27;15.83;;;0.70;99.90;;;;;;4959636;28;20034;-83
2023/12/08 10:23:17;;;;;;;32.33;15.20;;;0.80;99.90;;;;;;4971297;28;20046;-82
2023/12/08 10:25:44;;;;;;;32.43;16.13;;;0.50;99.90;;;;;;4975886;28;20509;-83
2023/12/08 10:28:11;;;;;;;37.27;17.23;;;0.50;99.90;;;;;;4977813;28;20447;-83
2023/12/08 10:31:20;;;;;;;36.70;15.73;;;0.70;99.90;;;;;;4977374;28;20046;-83
2023/12/08 10:33:50;;;;;;;37.50;16.67;;;0.30;99.90;;;;;;4975161;28;20496;-83
2023/12/08 10:36:16;;;;;;;36.13;16.53;;;0.60;99.90;;;;;;4959070;28;20141;-83
2023/12/08 10:38:49;;;;;;;34.97;17.13;;;0.80;99.90;;;;;;4960421;28;20089;-83
2023/12/08 10:41:16;;;;;;;43.03;16.65;;;1.20;99.90;;;;;;4994051;28;20438;-85
2023/12/08 10:43:43;;;;;;;39.07;17.60;;;0.40;99.90;;;;;;4977821;28;20061;-83
2023/12/08 10:46:09;;;;;;;33.57;15.90;;;0.80;99.90;;;;;;4978083;28;20048;-83
2023/12/08 10:48:54;;;;;;;37.43;17.30;;;0.70;99.90;;;;;;4977907;28;20133;-83
2023/12/08 10:51:26;;;;;;;36.33;17.77;;;0.70;99.90;;;;;;4977034;28;20054;-84
2023/12/08 10:53:52;;;;;;;37.60;16.90;;;1.00;99.90;;;;;;4978127;28;20140;-85
2023/12/08 10:56:20;;;;;;;39.73;17.57;;;0.70;99.90;;;;;;4977599;28;20046;-84
2023/12/08 10:58:58;;;;;;;35.93;16.63;;;0.70;99.90;;;;;;4963965;28;20055;-84
2023/12/08 11:01:24;;;;;;;36.23;16.90;;;0.80;99.90;;;;;;4958176;28;20068;-84
2023/12/08 11:03:56;;;;;;;37.63;17.03;;;1.10;99.90;;;;;;4970459;28;20484;-84
2023/12/08 11:06:36;;;;;;;40.07;18.10;;;0.60;99.90;;;;;;4954559;29;20130;-84
2023/12/08 11:09:06;;;;;;;43.97;18.53;;;1.50;99.90;;;;;;4950519;29;20050;-84
2023/12/08 11:11:33;;;;;;;44.27;18.40;;;2.40;99.90;;;;;;4919225;29;20559;-84
2023/12/08 11:14:19;;;;;;;49.87;19.20;;;0.80;99.90;;;;;;4932099;29;20051;-84
2023/12/08 11:17:20;;;;;;;47.07;17.97;;;1.90;99.90;;;;;;4984066;23;20051;-84
2023/12/08 11:20:20;;;;;;;51.43;18.87;;;0.90;99.90;;;;;;4938116;29;20062;-84
2023/12/08 11:22:46;;;;;;;52.63;17.80;;;1.90;99.90;;;;;;4938880;29;20110;-86
2023/12/08 11:25:19;;;;;;;49.70;19.17;;;1.00;99.90;;;;;;4932108;29;20406;-85
2023/12/08 11:28:26;;;;;;;48.08;19.02;;;1.10;99.90;;;;;;4936995;29;20059;-84
2023/12/08 11:34:17;;;;;;;59.30;20.20;;;0.80;99.90;;;;;;4875993;29;20390;-85
2023/12/08 11:37:11;;;;;;;50.60;19.47;;;1.20;99.90;;;;;;4918558;29;20062;-84
2023/12/08 11:39:41;;;;;;;48.47;19.23;;;1.10;99.90;;;;;;4934377;29;20098;-85
2023/12/08 11:42:18;;;;;;;77.77;20.33;;;1.40;99.90;;;;;;4938412;29;20051;-85
2023/12/08 11:44:45;;;;;;;67.40;21.67;;;1.20;99.90;;;;;;4938705;29;20480;-85
2023/12/08 11:47:19;;;;;;;72.90;21.53;;;1.00;99.90;;;;;;4928402;29;20574;-85
2023/12/08 11:49:49;;;;;;;66.50;22.67;;;1.00;99.90;;;;;;4938325;29;20886;-84
2023/12/08 11:52:31;;;;;;;67.73;21.47;;;1.20;99.90;;;;;;4955065;29;20049;-88
2023/12/08 11:55:01;;;;;;;72.63;21.90;;;1.20;99.90;;;;;;4937680;29;20050;-85
2023/12/08 11:58:17;;;;;;;80.50;21.30;;;1.40;99.90;;;;;;5180963;23;20460;-86
2023/12/08 12:01:12;;;;;;;65.57;22.20;;;2.20;99.90;;;;;;4953362;23;20047;-89
2023/12/08 12:03:44;;;;;;;70.67;21.00;;;0.80;99.90;;;;;;4970264;28;20081;-85
2023/12/08 12:06:13;;;;;;;63.97;21.73;;;1.10;99.90;;;;;;4953515;29;20050;-83
2023/12/08 12:08:51;;;;;;;67.40;21.67;;;1.10;99.90;;;;;;4952401;28;20048;-83
2023/12/08 12:11:22;;;;;;;63.57;21.73;;;1.30;99.90;;;;;;4955571;29;20054;-83
2023/12/08 12:13:55;;;;;;;65.33;20.53;;;1.50;99.90;;;;;;4954302;29;20070;-83
2023/12/08 12:16:36;;;;;;;58.05;20.30;;;1.80;99.90;;;;;;4953655;29;20069;-86
2023/12/08 12:19:05;;;;;;;78.50;22.73;;;1.20;99.90;;;;;;4953473;29;20181;-82
2023/12/08 12:21:30;;;;;;;68.57;21.80;;;1.20;99.90;;;;;;4953598;23;20685;-85
2023/12/08 12:23:58;;;;;;;57.93;20.37;;;1.40;99.90;;;;;;4950505;29;20035;-84
2023/12/08 12:26:45;;;;;;;56.10;21.80;;;2.50;99.90;;;;;;4951968;29;20047;-86
2023/12/08 12:29:20;;;;;;;77.82;21.65;;;1.60;99.90;;;;;;4951387;29;20043;-85
2023/12/08 12:31:46;;;;;;;69.50;21.60;;;1.40;99.90;;;;;;4950456;29;20054;-85
2023/12/08 12:34:34;;;;;;;75.20;21.60;;;0.90;99.90;;;;;;4947798;28;20543;-85
2023/12/08 12:39:43;;;;;;;;;;;1.50;99.90;;;;;;4963424;28;20653;-85
2023/12/08 12:42:24;;;;;;;94.83;22.63;;;1.50;99.90;;;;;;4956028;28;19926;-85
2023/12/08 12:44:50;;;;;;;70.83;22.20;;;1.90;99.90;;;;;;4953904;28;20062;-85
2023/12/08 12:47:42;;;;;;;73.57;22.57;;;1.50;99.90;;;;;;4955626;28;20132;-85
2023/12/08 12:50:46;;;;;;;81.47;22.60;;;2.60;99.90;;;;;;4953885;28;20038;-85
2023/12/08 12:56:22;;;;;;;100.50;23.23;;;1.50;99.90;;;;;;4952529;28;19922;-85
2023/12/08 12:59:21;;;;;;;71.07;21.17;;;0.80;99.90;;;;;;4953164;28;20046;-85
2023/12/08 13:02:44;;;;;;;88.10;23.00;;;1.70;99.90;;;;;;4955833;28;20043;-85
2023/12/08 13:05:31;;;;;;;75.77;22.80;;;3.00;99.90;;;;;;4905841;28;20104;-85
2023/12/08 13:08:03;;;;;;;86.53;23.80;;;2.90;99.90;;;;;;4955115;28;20031;-84
2023/12/08 13:11:07;;;;;;;81.50;22.50;;;0.30;99.90;;;;;;4946201;28;20059;-84
2023/12/08 13:14:00;;;;;;;76.37;22.00;;;2.90;99.90;;;;;;4930673;28;20066;-85